Time;durP1;ratioP1;P1;durP2;ratioP2;P2;SDS_P1;SDS_P2;PMS_P1;PMS_P2;Temp;Humidity;BMP_temperature;BMP_pressure;BME280_temperature;BME280_humidity;BME280_pressure;Samples;Min_cycle;Max_cycle;Signal;HPM_P1;HPM_P2
2023/07/23 00:00:03;;;;;;;;;;;;;;;;;;4967674;28;20494;-80
2023/07/23 00:02:50;;;;;;;;;;;;;;;;;;4954739;28;19934;-80
2023/07/23 00:05:37;;;;;;;;;;;;;;;;;;4947434;28;19926;-81
2023/07/23 00:08:23;;;;;;;;;;;;;;;;;;4944202;28;19918;-79
2023/07/23 00:11:10;;;;;;;;;;;;;;;;;;4967732;28;19918;-80
2023/07/23 00:13:56;;;;;;;;;;;;;;;;;;4959724;28;19924;-79
2023/07/23 00:16:43;;;;;;;;;;;;;;;;;;4962951;28;19926;-79
2023/07/23 00:19:29;;;;;;;;;;;;;;;;;;4957845;28;19914;-79
2023/07/23 00:22:16;;;;;;;;;;;;;;;;;;4958251;28;19932;-79
2023/07/23 00:25:02;;;;;;;;;;;;;;;;;;4966252;28;19918;-79
2023/07/23 00:27:49;;;;;;;;;;;;;;;;;;4967761;28;19947;-79
2023/07/23 00:30:35;;;;;;;;;;;;;;;;;;4957788;28;19922;-78
2023/07/23 00:33:23;;;;;;;;;;;;;;;;;;4952660;28;20385;-80
2023/07/23 00:36:09;;;;;;;;;;;;;;;;;;4947998;28;19918;-80
2023/07/23 00:38:56;;;;;;;;;;;;;;;;;;4960901;28;19918;-80
2023/07/23 00:41:42;;;;;;;;;;;;;;;;;;4957432;28;19927;-79
2023/07/23 00:44:29;;;;;;;;;;;;;;;;;;4967550;28;19922;-79
2023/07/23 00:47:15;;;;;;;;;;;;;;;;;;4964906;28;19960;-79
2023/07/23 00:50:02;;;;;;;;;;;;;;;;;;4962025;28;19933;-79
2023/07/23 00:52:48;;;;;;;;;;;;;;;;;;4962260;28;19926;-80
2023/07/23 00:55:35;;;;;;;;;;;;;;;;;;4966080;28;20394;-79
2023/07/23 00:58:21;;;;;;;;;;;;;;;;;;4958426;28;19923;-80
2023/07/23 01:01:08;;;;;;;;;;;;;;;;;;4946828;28;20021;-78
2023/07/23 01:03:54;;;;;;;;;;;;;;;;;;4948598;28;19928;-79
2023/07/23 01:06:43;;;;;;;;;;;;;;;;;;4957718;28;19922;-79
2023/07/23 01:09:29;;;;;;;;;;;;;;;;;;4964058;28;19929;-78
2023/07/23 01:12:17;;;;;;;;;;;;;;;;;;4954171;28;19922;-79
2023/07/23 01:15:05;;;;;;;;;;;;;;;;;;4963014;28;19925;-79
2023/07/23 01:17:51;;;;;;;;;;;;;;;;;;4962331;28;19980;-80
2023/07/23 01:20:38;;;;;;;;;;;;;;;;;;4961656;28;19968;-79
2023/07/23 01:23:24;;;;;;;;;;;;;;;;;;4970274;28;19965;-79
2023/07/23 01:26:11;;;;;;;;;;;;;;;;;;4970233;28;20305;-79
2023/07/23 01:28:57;;;;;;;;;;;;;;;;;;4967663;28;19958;-79
2023/07/23 01:31:44;;;;;;;;;;;;;;;;;;4949570;28;20570;-80
2023/07/23 01:34:30;;;;;;;;;;;;;;;;;;4965986;28;19925;-78
2023/07/23 01:37:17;;;;;;;;;;;;;;;;;;4966799;28;19925;-80
2023/07/23 01:40:03;;;;;;;;;;;;;;;;;;4958278;28;19936;-79
2023/07/23 01:42:50;;;;;;;;;;;;;;;;;;4966283;28;20421;-79
2023/07/23 01:45:36;;;;;;;;;;;;;;;;;;4961503;28;19919;-79
2023/07/23 01:48:22;;;;;;;;;;;;;;;;;;4944461;28;20534;-78
2023/07/23 01:51:10;;;;;;;;;;;;;;;;;;4951976;28;19919;-78
2023/07/23 01:53:56;;;;;;;;;;;;;;;;;;4947597;28;19919;-79
2023/07/23 01:56:43;;;;;;;;;;;;;;;;;;4964359;28;20275;-79
2023/07/23 01:59:29;;;;;;;;;;;;;;;;;;4950793;28;19938;-79
2023/07/23 02:02:16;;;;;;;;;;;;;;;;;;4960700;28;19937;-79
2023/07/23 02:05:03;;;;;;;;;;;;;;;;;;4945731;28;19918;-79
2023/07/23 02:07:49;;;;;;;;;;;;;;;;;;4947547;28;19918;-78
2023/07/23 02:10:36;;;;;;;;;;;;;;;;;;4957475;28;19928;-79
2023/07/23 02:13:22;;;;;;;;;;;;;;;;;;4959910;28;19914;-80
2023/07/23 02:16:09;;;;;;;;;;;;;;;;;;4966333;28;19940;-79
2023/07/23 02:18:55;;;;;;;;;;;;;;;;;;4961729;28;19925;-80
2023/07/23 02:21:42;;;;;;;;;;;;;;;;;;4954392;28;19938;-79
2023/07/23 02:24:28;;;;;;;;;;;;;;;;;;4965925;28;20378;-79
2023/07/23 02:27:15;;;;;;;;;;;;;;;;;;4963131;28;19930;-80
2023/07/23 02:30:01;;;;;;;;;;;;;;;;;;4977099;28;19922;-80
2023/07/23 02:32:48;;;;;;;;;;;;;;;;;;4948343;28;19920;-79
2023/07/23 02:35:34;;;;;;;;;;;;;;;;;;4946785;28;19927;-80
2023/07/23 02:38:21;;;;;;;;;;;;;;;;;;4966293;28;19918;-80
2023/07/23 02:41:08;;;;;;;;;;;;;;;;;;4965347;28;19922;-80
2023/07/23 02:43:54;;;;;;;;;;;;;;;;;;4962749;28;19918;-80
2023/07/23 02:46:41;;;;;;;;;;;;;;;;;;4963175;28;19918;-78
2023/07/23 02:49:27;;;;;;;;;;;;;;;;;;4956363;28;19926;-77
2023/07/23 02:52:14;;;;;;;;;;;;;;;;;;4965157;28;19914;-79
2023/07/23 02:55:00;;;;;;;;;;;;;;;;;;4946099;28;19933;-79
2023/07/23 02:57:47;;;;;;;;;;;;;;;;;;4949353;28;20322;-80
2023/07/23 03:00:33;;;;;;;;;;;;;;;;;;4952130;28;19933;-79
2023/07/23 03:03:20;;;;;;;;;;;;;;;;;;4968738;28;19922;-80
2023/07/23 03:06:06;;;;;;;;;;;;;;;;;;4968531;28;19925;-80
2023/07/23 03:08:53;;;;;;;;;;;;;;;;;;4950104;28;19923;-79
2023/07/23 03:11:39;;;;;;;;;;;;;;;;;;4965265;28;19925;-78
2023/07/23 03:14:26;;;;;;;;;;;;;;;;;;4952187;28;19926;-78
2023/07/23 03:17:12;;;;;;;;;;;;;;;;;;4965958;28;19918;-80
2023/07/23 03:19:59;;;;;;;;;;;;;;;;;;4967587;28;19914;-80
2023/07/23 03:22:45;;;;;;;;;;;;;;;;;;4964770;28;19922;-80
2023/07/23 03:25:32;;;;;;;;;;;;;;;;;;4960125;28;19918;-79
2023/07/23 03:28:18;;;;;;;;;;;;;;;;;;4962987;28;19918;-80
2023/07/23 03:31:05;;;;;;;;;;;;;;;;;;4964085;28;19922;-80
2023/07/23 03:33:51;;;;;;;;;;;;;;;;;;4962644;28;20412;-80
2023/07/23 03:36:38;;;;;;;;;;;;;;;;;;4964698;28;20432;-80
2023/07/23 03:39:24;;;;;;;;;;;;;;;;;;4967783;28;19918;-79
2023/07/23 03:42:11;;;;;;;;;;;;;;;;;;4954203;28;19930;-80
2023/07/23 03:44:57;;;;;;;;;;;;;;;;;;4957186;28;19925;-79
2023/07/23 03:47:44;;;;;;;;;;;;;;;;;;4967612;28;19921;-79
2023/07/23 03:50:30;;;;;;;;;;;;;;;;;;4956506;28;19928;-79
2023/07/23 03:53:17;;;;;;;;;;;;;;;;;;4974533;28;19922;-79
2023/07/23 03:56:03;;;;;;;;;;;;;;;;;;4966230;28;19926;-79
2023/07/23 03:58:50;;;;;;;;;;;;;;;;;;4960237;28;19922;-79
2023/07/23 04:01:36;;;;;;;;;;;;;;;;;;4968609;28;19929;-79
2023/07/23 04:04:23;;;;;;;;;;;;;;;;;;4968029;28;19918;-79
2023/07/23 04:07:09;;;;;;;;;;;;;;;;;;4959261;28;19914;-80
2023/07/23 04:09:56;;;;;;;;;;;;;;;;;;4967535;28;19922;-79
2023/07/23 04:12:42;;;;;;;;;;;;;;;;;;4960568;28;19922;-80
2023/07/23 04:15:29;;;;;;;;;;;;;;;;;;4956826;28;19979;-79
2023/07/23 04:18:15;;;;;;;;;;;;;;;;;;4968248;28;19926;-80
2023/07/23 04:21:02;;;;;;;;;;;;;;;;;;4965664;28;20549;-80
2023/07/23 04:23:48;;;;;;;;;;;;;;;;;;4967266;28;19961;-80
2023/07/23 04:26:35;;;;;;;;;;;;;;;;;;4967077;28;19941;-78
2023/07/23 04:29:21;;;;;;;;;;;;;;;;;;4968527;28;19918;-80
2023/07/23 04:32:08;;;;;;;;;;;;;;;;;;4957151;28;19929;-79
2023/07/23 04:34:54;;;;;;;;;;;;;;;;;;4960203;28;19925;-80
2023/07/23 04:37:41;;;;;;;;;;;;;;;;;;4957654;28;19922;-80
2023/07/23 04:40:27;;;;;;;;;;;;;;;;;;4964700;28;19926;-79
2023/07/23 04:43:14;;;;;;;;;;;;;;;;;;4970540;28;19941;-79
2023/07/23 04:46:00;;;;;;;;;;;;;;;;;;4964366;28;19922;-80
2023/07/23 04:48:46;;;;;;;;;;;;;;;;;;4968086;28;20361;-80
2023/07/23 04:51:33;;;;;;;;;;;;;;;;;;4972381;28;19926;-80
2023/07/23 04:54:19;;;;;;;;;;;;;;;;;;4960675;28;20028;-78
2023/07/23 04:57:06;;;;;;;;;;;;;;;;;;4966503;28;20308;-79
2023/07/23 04:59:52;;;;;;;;;;;;;;;;;;4965821;28;19924;-78
2023/07/23 05:02:39;;;;;;;;;;;;;;;;;;4967003;28;19937;-78
2023/07/23 05:05:25;;;;;;;;;;;;;;;;;;4965695;28;19937;-79
2023/07/23 05:08:12;;;;;;;;;;;;;;;;;;4962991;28;19944;-78
2023/07/23 05:10:59;;;;;;;;;;;;;;;;;;4953386;28;19922;-78
2023/07/23 05:13:45;;;;;;;;;;;;;;;;;;4945013;28;19927;-79
2023/07/23 05:16:32;;;;;;;;;;;;;;;;;;4952335;28;19918;-78
2023/07/23 05:19:18;;;;;;;;;;;;;;;;;;4954286;28;20290;-79
2023/07/23 05:22:05;;;;;;;;;;;;;;;;;;4967300;28;19950;-79
2023/07/23 05:24:51;;;;;;;;;;;;;;;;;;4965457;28;19964;-78
2023/07/23 05:27:38;;;;;;;;;;;;;;;;;;4963733;28;20161;-78
2023/07/23 05:30:24;;;;;;;;;;;;;;;;;;4975853;28;20293;-78
2023/07/23 05:33:11;;;;;;;;;;;;;;;;;;4972927;28;19933;-80
2023/07/23 05:35:57;;;;;;;;;;;;;;;;;;4967072;28;19925;-78
2023/07/23 05:38:44;;;;;;;;;;;;;;;;;;4948367;28;19923;-78
2023/07/23 05:41:30;;;;;;;;;;;;;;;;;;4967530;28;19910;-78
2023/07/23 05:44:17;;;;;;;;;;;;;;;;;;4973872;28;19925;-79
2023/07/23 05:47:04;;;;;;;;;;;;;;;;;;4976863;28;20870;-77
2023/07/23 05:49:50;;;;;;;;;;;;;;;;;;4976175;28;19914;-79
2023/07/23 05:52:36;;;;;;;;;;;;;;;;;;4962237;28;19914;-77
2023/07/23 05:55:23;;;;;;;;;;;;;;;;;;4961510;28;19923;-79
2023/07/23 05:58:09;;;;;;;;;;;;;;;;;;4975835;28;19940;-80
2023/07/23 06:00:56;;;;;;;;;;;;;;;;;;4961470;28;19934;-80
2023/07/23 06:03:42;;;;;;;;;;;;;;;;;;4969070;28;19918;-77
2023/07/23 06:06:29;;;;;;;;;;;;;;;;;;4952875;28;19925;-79
2023/07/23 06:09:16;;;;;;;;;;;;;;;;;;4980741;28;19932;-80
2023/07/23 06:12:03;;;;;;;;;;;;;;;;;;4971808;28;19922;-78
2023/07/23 06:14:50;;;;;;;;;;;;;;;;;;4949582;28;19914;-78
2023/07/23 06:17:36;;;;;;;;;;;;;;;;;;4969528;28;20378;-80
2023/07/23 06:20:23;;;;;;;;;;;;;;;;;;4976637;28;19918;-79
2023/07/23 06:23:09;;;;;;;;;;;;;;;;;;4970557;28;19918;-79
2023/07/23 06:25:56;;;;;;;;;;;;;;;;;;4973193;28;19922;-79
2023/07/23 06:28:42;;;;;;;;;;;;;;;;;;4970947;28;19918;-79
2023/07/23 06:31:29;;;;;;;;;;;;;;;;;;4959269;28;20230;-79
2023/07/23 06:34:15;;;;;;;;;;;;;;;;;;4957355;28;19932;-80
2023/07/23 06:37:02;;;;;;;;;;;;;;;;;;4972630;28;19925;-80
2023/07/23 06:39:48;;;;;;;;;;;;;;;;;;4958830;28;19914;-79
2023/07/23 06:42:35;;;;;;;;;;;;;;;;;;4970984;28;19933;-79
2023/07/23 06:45:21;;;;;;;;;;;;;;;;;;4968351;28;19925;-78
2023/07/23 06:48:08;;;;;;;;;;;;;;;;;;4972444;28;20271;-80
2023/07/23 06:50:55;;;;;;;;;;;;;;;;;;4970106;28;19919;-80
2023/07/23 06:53:42;;;;;;;;;;;;;;;;;;4971801;28;20385;-79
2023/07/23 06:56:28;;;;;;;;;;;;;;;;;;4959835;28;19933;-79
2023/07/23 06:59:15;;;;;;;;;;;;;;;;;;4960612;28;19945;-80
2023/07/23 07:02:02;;;;;;;;;;;;;;;;;;4958662;28;19930;-79
2023/07/23 07:04:48;;;;;;;;;;;;;;;;;;4967993;28;19940;-79
2023/07/23 07:07:35;;;;;;;;;;;;;;;;;;4967389;28;20302;-79
2023/07/23 07:10:21;;;;;;;;;;;;;;;;;;4970275;28;20501;-80
2023/07/23 07:13:08;;;;;;;;;;;;;;;;;;4967990;28;19918;-79
2023/07/23 07:15:54;;;;;;;;;;;;;;;;;;4960140;28;19922;-79
2023/07/23 07:18:41;;;;;;;;;;;;;;;;;;4966306;28;19928;-79
2023/07/23 07:21:27;;;;;;;;;;;;;;;;;;4967695;28;19926;-78
2023/07/23 07:24:14;;;;;;;;;;;;;;;;;;4973175;28;19940;-78
2023/07/23 07:27:00;;;;;;;;;;;;;;;;;;4960566;28;19946;-80
2023/07/23 07:29:47;;;;;;;;;;;;;;;;;;4958763;28;19933;-79
2023/07/23 07:32:33;;;;;;;;;;;;;;;;;;4962426;28;19926;-79
2023/07/23 07:35:20;;;;;;;;;;;;;;;;;;4952341;28;19926;-80
2023/07/23 07:38:06;;;;;;;;;;;;;;;;;;4969014;28;19922;-80
2023/07/23 07:40:53;;;;;;;;;;;;;;;;;;4960492;28;19929;-79
2023/07/23 07:43:40;;;;;;;;;;;;;;;;;;4962413;28;20290;-79
2023/07/23 07:46:26;;;;;;;;;;;;;;;;;;4954917;28;19938;-76
2023/07/23 07:49:13;;;;;;;;;;;;;;;;;;4964187;28;20381;-80
2023/07/23 07:51:59;;;;;;;;;;;;;;;;;;4967242;28;19919;-79
2023/07/23 07:54:46;;;;;;;;;;;;;;;;;;4969552;28;20166;-78
2023/07/23 07:57:32;;;;;;;;;;;;;;;;;;4969957;28;19932;-80
2023/07/23 08:00:19;;;;;;;;;;;;;;;;;;4962770;28;19929;-79
2023/07/23 08:03:05;;;;;;;;;;;;;;;;;;4962669;28;19926;-79
2023/07/23 08:05:52;;;;;;;;;;;;;;;;;;4968374;28;19945;-80
2023/07/23 08:08:38;;;;;;;;;;;;;;;;;;4968912;28;19917;-79
2023/07/23 08:11:25;;;;;;;;;;;;;;;;;;4965136;28;19925;-78
2023/07/23 08:14:11;;;;;;;;;;;;;;;;;;4966112;28;20655;-79
2023/07/23 08:16:57;;;;;;;;;;;;;;;;;;4974209;28;19921;-78
2023/07/23 08:19:44;;;;;;;;;;;;;;;;;;4971680;28;19940;-79
2023/07/23 08:22:31;;;;;;;;;;;;;;;;;;4976963;28;19938;-79
2023/07/23 08:25:17;;;;;;;;;;;;;;;;;;4968069;28;19918;-79
2023/07/23 08:28:03;;;;;;;;;;;;;;;;;;4964081;28;20327;-79
2023/07/23 08:30:50;;;;;;;;;;;;;;;;;;4969101;28;19922;-80
2023/07/23 08:33:37;;;;;;;;;;;;;;;;;;4970457;28;20400;-80
2023/07/23 08:36:23;;;;;;;;;;;;;;;;;;4968998;28;19944;-80
2023/07/23 08:39:10;;;;;;;;;;;;;;;;;;4962540;28;19922;-79
2023/07/23 08:41:59;;;;;;;;;;;;;;;;;;4955763;28;19936;-79
2023/07/23 08:44:46;;;;;;;;;;;;;;;;;;4970008;28;20396;-79
2023/07/23 08:47:32;;;;;;;;;;;;;;;;;;4977590;28;19929;-79
2023/07/23 08:50:19;;;;;;;;;;;;;;;;;;4958268;28;19926;-79
2023/07/23 08:53:05;;;;;;;;;;;;;;;;;;4962982;28;19922;-80
2023/07/23 08:55:52;;;;;;;;;;;;;;;;;;4961476;28;19923;-80
2023/07/23 08:58:38;;;;;;;;;;;;;;;;;;4968770;28;19922;-80
2023/07/23 09:01:25;;;;;;;;;;;;;;;;;;4959155;28;20004;-81
2023/07/23 09:04:11;;;;;;;;;;;;;;;;;;4947522;28;19930;-81
2023/07/23 09:06:58;;;;;;;;;;;;;;;;;;4961013;28;19926;-80
2023/07/23 09:09:44;;;;;;;;;;;;;;;;;;4955832;28;19996;-78
2023/07/23 09:12:31;;;;;;;;;;;;;;;;;;4962055;28;19941;-78
2023/07/23 09:15:17;;;;;;;;;;;;;;;;;;4964010;28;19926;-80
2023/07/23 09:18:04;;;;;;;;;;;;;;;;;;4957742;28;20397;-79
2023/07/23 09:20:50;;;;;;;;;;;;;;;;;;4968781;28;19918;-79
2023/07/23 09:23:37;;;;;;;;;;;;;;;;;;4973677;28;19922;-79
2023/07/23 09:26:26;;;;;;;;;;;;;;;;;;4971866;28;19925;-81
2023/07/23 09:29:13;;;;;;;;;;;;;;;;;;4967509;28;19921;-80
2023/07/23 09:31:59;;;;;;;;;;;;;;;;;;4968686;28;19922;-80
2023/07/23 09:34:46;;;;;;;;;;;;;;;;;;4969147;28;19922;-80
2023/07/23 09:37:33;;;;;;;;;;;;;;;;;;4961945;28;19929;-79
2023/07/23 09:40:19;;;;;;;;;;;;;;;;;;4973889;28;19933;-79
2023/07/23 09:43:06;;;;;;;;;;;;;;;;;;4973636;28;19934;-79
2023/07/23 09:45:52;;;;;;;;;;;;;;;;;;4967941;28;19918;-79
2023/07/23 09:48:41;;;;;;;;;;;;;;;;;;4965223;28;19933;-80
2023/07/23 09:51:28;;;;;;;;;;;;;;;;;;4963394;28;20475;-81
2023/07/23 09:54:14;;;;;;;;;;;;;;;;;;4974712;28;19918;-79
2023/07/23 09:57:01;;;;;;;;;;;;;;;;;;4956714;28;20306;-79
2023/07/23 09:59:47;;;;;;;;;;;;;;;;;;4967679;28;19933;-80
2023/07/23 10:02:34;;;;;;;;;;;;;;;;;;4968577;28;19933;-80
2023/07/23 10:05:20;;;;;;;;;;;;;;;;;;4970514;28;19918;-80
2023/07/23 10:08:07;;;;;;;;;;;;;;;;;;4966432;28;19927;-80
2023/07/23 10:10:53;;;;;;;;;;;;;;;;;;4965486;28;19929;-80
2023/07/23 10:13:43;;;;;;;;;;;;;;;;;;4967077;28;19935;-80
2023/07/23 10:16:29;;;;;;;;;;;;;;;;;;4968569;28;19918;-80
2023/07/23 10:19:16;;;;;;;;;;;;;;;;;;4967721;28;20006;-80
2023/07/23 10:22:02;;;;;;;;;;;;;;;;;;4955436;28;19929;-76
2023/07/23 10:24:49;;;;;;;;;;;;;;;;;;4964411;28;19918;-77
2023/07/23 10:27:35;;;;;;;;;;;;;;;;;;4968648;28;19922;-76
2023/07/23 10:30:21;;;;;;;;;;;;;;;;;;4967439;28;20330;-77
2023/07/23 10:33:08;;;;;;;;;;;;;;;;;;4968032;28;19918;-77
2023/07/23 10:35:54;;;;;;;;;;;;;;;;;;4933015;28;19918;-78
2023/07/23 10:38:41;;;;;;;;;;;;;;;;;;4945513;28;19929;-78
2023/07/23 10:41:27;;;;;;;;;;;;;;;;;;4956385;28;19930;-77
2023/07/23 10:44:14;;;;;;;;;;;;;;;;;;4967816;28;19929;-76
2023/07/23 10:47:02;;;;;;;;;;;;;;;;;;4951046;28;19922;-75
2023/07/23 10:49:49;;;;;;;;;;;;;;;;;;4966112;28;20206;-77
2023/07/23 10:52:35;;;;;;;;;;;;;;;;;;4972569;28;19929;-74
2023/07/23 10:55:22;;;;;;;;;;;;;;;;;;4964533;28;19926;-76
2023/07/23 10:58:08;;;;;;;;;;;;;;;;;;4959853;28;19926;-74
2023/07/23 11:00:55;;;;;;;;;;;;;;;;;;4948344;28;19923;-75
2023/07/23 11:03:41;;;;;;;;;;;;;;;;;;4966668;28;19929;-74
2023/07/23 11:06:28;;;;;;;;;;;;;;;;;;4968566;28;20404;-75
2023/07/23 11:09:14;;;;;;;;;;;;;;;;;;4965316;28;19924;-76
2023/07/23 11:12:01;;;;;;;;;;;;;;;;;;4962178;28;20377;-76
2023/07/23 11:14:47;;;;;;;;;;;;;;;;;;4959578;28;19929;-76
2023/07/23 11:17:33;;;;;;;;;;;;;;;;;;4953803;28;19922;-74
2023/07/23 11:20:20;;;;;;;;;;;;;;;;;;4968734;28;19922;-75
2023/07/23 11:23:07;;;;;;;;;;;;;;;;;;4970457;28;19934;-75
2023/07/23 11:25:53;;;;;;;;;;;;;;;;;;4972231;28;19915;-75
2023/07/23 11:28:39;;;;;;;;;;;;;;;;;;4967025;28;20374;-75
2023/07/23 11:31:26;;;;;;;;;;;;;;;;;;4945108;28;19929;-75
2023/07/23 11:34:13;;;;;;;;;;;;;;;;;;4962561;28;19936;-75
2023/07/23 11:36:59;;;;;;;;;;;;;;;;;;4964679;28;19925;-75
2023/07/23 11:39:46;;;;;;;;;;;;;;;;;;4966323;28;19945;-75
2023/07/23 11:42:32;;;;;;;;;;;;;;;;;;4967226;28;19937;-77
2023/07/23 11:45:19;;;;;;;;;;;;;;;;;;4969274;28;19922;-75
2023/07/23 11:48:05;;;;;;;;;;;;;;;;;;4968861;28;19928;-75
2023/07/23 11:50:52;;;;;;;;;;;;;;;;;;4973212;28;19918;-75
2023/07/23 11:53:38;;;;;;;;;;;;;;;;;;4972470;28;20452;-75
2023/07/23 11:56:25;;;;;;;;;;;;;;;;;;4961051;28;19937;-74
2023/07/23 11:59:13;;;;;;;;;;;;;;;;;;4971316;28;19928;-74
2023/07/23 12:01:59;;;;;;;;;;;;;;;;;;4949669;28;19930;-75
2023/07/23 12:04:46;;;;;;;;;;;;;;;;;;4960705;28;19918;-75
2023/07/23 12:07:33;;;;;;;;;;;;;;;;;;4966321;28;19922;-76
2023/07/23 12:10:19;;;;;;;;;;;;;;;;;;4960347;28;19922;-76
2023/07/23 12:13:06;;;;;;;;;;;;;;;;;;4964984;28;20491;-75
2023/07/23 12:15:54;;;;;;;;;;;;;;;;;;4962655;28;19918;-75
2023/07/23 12:18:41;;;;;;;;;;;;;;;;;;4964174;28;19930;-74
2023/07/23 12:21:27;;;;;;;;;;;;;;;;;;4969554;28;20626;-74
2023/07/23 12:24:13;;;;;;;;;;;;;;;;;;4967131;28;19918;-74
2023/07/23 12:27:01;;;;;;;;;;;;;;;;;;4968404;28;19953;-74
2023/07/23 12:29:48;;;;;;;;;;;;;;;;;;4963850;28;20388;-74
2023/07/23 12:32:35;;;;;;;;;;;;;;;;;;4960693;28;19922;-75
2023/07/23 12:35:21;;;;;;;;;;;;;;;;;;4954630;28;19919;-75
2023/07/23 12:38:08;;;;;;;;;;;;;;;;;;4957926;28;19918;-74
2023/07/23 12:40:54;;;;;;;;;;;;;;;;;;4965692;28;19922;-75
2023/07/23 12:43:41;;;;;;;;;;;;;;;;;;4966342;28;19934;-74
2023/07/23 12:46:27;;;;;;;;;;;;;;;;;;4952561;28;19922;-76
2023/07/23 12:49:14;;;;;;;;;;;;;;;;;;4963900;28;19918;-75
2023/07/23 12:52:00;;;;;;;;;;;;;;;;;;4963845;28;19925;-76
2023/07/23 12:54:47;;;;;;;;;;;;;;;;;;4968307;28;19926;-76
2023/07/23 12:57:33;;;;;;;;;;;;;;;;;;4969610;28;19933;-75
2023/07/23 13:00:20;;;;;;;;;;;;;;;;;;4967148;28;19926;-74
2023/07/23 13:03:06;;;;;;;;;;;;;;;;;;4963252;28;19926;-74
2023/07/23 13:05:53;;;;;;;;;;;;;;;;;;4957170;28;20708;-75
2023/07/23 13:08:40;;;;;;;;;;;;;;;;;;4969489;28;19922;-75
2023/07/23 13:11:26;;;;;;;;;;;;;;;;;;4966246;28;19922;-75
2023/07/23 13:14:13;;;;;;;;;;;;;;;;;;4965005;28;19944;-75
2023/07/23 13:16:59;;;;;;;;;;;;;;;;;;4971157;28;19926;-75
2023/07/23 13:19:46;;;;;;;;;;;;;;;;;;4970909;28;19922;-74
2023/07/23 13:22:32;;;;;;;;;;;;;;;;;;4963494;28;19930;-75
2023/07/23 13:25:19;;;;;;;;;;;;;;;;;;4961921;28;19922;-75
2023/07/23 13:28:05;;;;;;;;;;;;;;;;;;4960750;28;19955;-75
2023/07/23 13:30:53;;;;;;;;;;;;;;;;;;4963482;28;20367;-74
2023/07/23 13:33:40;;;;;;;;;;;;;;;;;;4955020;28;19923;-75
2023/07/23 13:36:26;;;;;;;;;;;;;;;;;;4964587;28;20372;-75
2023/07/23 13:39:13;;;;;;;;;;;;;;;;;;4949701;28;19928;-74
2023/07/23 13:42:00;;;;;;;;;;;;;;;;;;4975962;28;19933;-75
2023/07/23 13:44:46;;;;;;;;;;;;;;;;;;4969342;28;19964;-75
2023/07/23 13:47:33;;;;;;;;;;;;;;;;;;4965350;28;20592;-75
2023/07/23 13:50:19;;;;;;;;;;;;;;;;;;4959599;28;19918;-75
2023/07/23 13:53:06;;;;;;;;;;;;;;;;;;4961873;28;20286;-75
2023/07/23 13:55:52;;;;;;;;;;;;;;;;;;4965447;28;20297;-75
2023/07/23 13:58:38;;;;;;;;;;;;;;;;;;4955822;28;19933;-74
2023/07/23 14:01:25;;;;;;;;;;;;;;;;;;4961773;28;19924;-75
2023/07/23 14:04:12;;;;;;;;;;;;;;;;;;4956657;28;19926;-75
2023/07/23 14:06:58;;;;;;;;;;;;;;;;;;4968827;28;19921;-74
2023/07/23 14:09:44;;;;;;;;;;;;;;;;;;4960137;28;19914;-74
2023/07/23 14:12:31;;;;;;;;;;;;;;;;;;4956573;28;19922;-75
2023/07/23 14:15:17;;;;;;;;;;;;;;;;;;4964385;28;19926;-74
2023/07/23 14:18:04;;;;;;;;;;;;;;;;;;4964123;28;19922;-75
2023/07/23 14:20:51;;;;;;;;;;;;;;;;;;4962277;28;19929;-76
2023/07/23 14:23:37;;;;;;;;;;;;;;;;;;4961823;28;19933;-76
2023/07/23 14:26:24;;;;;;;;;;;;;;;;;;4968618;28;21531;-75
2023/07/23 14:29:10;;;;;;;;;;;;;;;;;;4954490;28;20296;-75
2023/07/23 14:31:57;;;;;;;;;;;;;;;;;;4943773;28;20386;-77
2023/07/23 14:34:43;;;;;;;;;;;;;;;;;;4948251;28;19922;-75
2023/07/23 14:37:30;;;;;;;;;;;;;;;;;;4957552;28;19922;-76
2023/07/23 14:40:17;;;;;;;;;;;;;;;;;;4951859;28;19933;-75
2023/07/23 14:43:03;;;;;;;;;;;;;;;;;;4952101;28;19926;-76
2023/07/23 14:45:50;;;;;;;;;;;;;;;;;;4957491;28;20679;-74
2023/07/23 14:48:36;;;;;;;;;;;;;;;;;;4969571;28;19922;-76
2023/07/23 14:51:23;;;;;;;;;;;;;;;;;;4965837;28;19922;-74
2023/07/23 14:54:09;;;;;;;;;;;;;;;;;;4968734;28;19918;-78
2023/07/23 14:56:56;;;;;;;;;;;;;;;;;;4963713;28;19934;-78
2023/07/23 14:59:42;;;;;;;;;;;;;;;;;;4957951;28;19922;-76
2023/07/23 15:02:29;;;;;;;;;;;;;;;;;;4961235;28;19937;-77
2023/07/23 15:05:16;;;;;;;;;;;;;;;;;;4963323;28;19949;-79
2023/07/23 15:08:02;;;;;;;;;;;;;;;;;;4956752;28;19914;-76
2023/07/23 15:10:49;;;;;;;;;;;;;;;;;;4969820;28;19946;-78
2023/07/23 15:13:35;;;;;;;;;;;;;;;;;;4961464;28;19918;-78
2023/07/23 15:16:22;;;;;;;;;;;;;;;;;;4961459;28;19948;-81
2023/07/23 15:19:08;;;;;;;;;;;;;;;;;;4961390;28;19926;-75
2023/07/23 15:21:55;;;;;;;;;;;;;;;;;;4953846;28;20396;-77
2023/07/23 15:24:41;;;;;;;;;;;;;;;;;;4982281;28;20170;-78
2023/07/23 15:27:28;;;;;;;;;;;;;;;;;;4959982;28;19922;-80
2023/07/23 15:30:14;;;;;;;;;;;;;;;;;;4965697;28;19922;-78
2023/07/23 15:33:01;;;;;;;;;;;;;;;;;;4969193;28;19926;-77
2023/07/23 15:35:49;;;;;;;;;;;;;;;;;;4965890;28;19965;-78
2023/07/23 15:38:35;;;;;;;;;;;;;;;;;;4970777;28;20361;-78
2023/07/23 15:41:22;;;;;;;;;;;;;;;;;;4960078;28;19929;-78
2023/07/23 15:44:12;;;;;;;;;;;;;;;;;;4963780;28;19926;-77
2023/07/23 15:46:59;;;;;;;;;;;;;;;;;;4963796;28;20550;-78
2023/07/23 15:49:45;;;;;;;;;;;;;;;;;;4966482;28;20290;-78
2023/07/23 15:52:32;;;;;;;;;;;;;;;;;;4954355;28;19929;-78
2023/07/23 15:55:18;;;;;;;;;;;;;;;;;;4962656;28;19937;-78
2023/07/23 15:58:06;;;;;;;;;;;;;;;;;;4967871;28;19940;-77
2023/07/23 16:00:55;;;;;;;;;;;;;;;;;;4967639;28;19959;-79
2023/07/23 16:03:41;;;;;;;;;;;;;;;;;;4969806;28;19936;-76
2023/07/23 16:06:28;;;;;;;;;;;;;;;;;;4967730;28;19933;-77
2023/07/23 16:09:15;;;;;;;;;;;;;;;;;;4966632;28;19925;-78
2023/07/23 16:12:01;;;;;;;;;;;;;;;;;;4969089;28;19928;-79
2023/07/23 16:14:48;;;;;;;;;;;;;;;;;;4964675;28;19918;-78
2023/07/23 16:17:34;;;;;;;;;;;;;;;;;;4961255;28;19930;-77
2023/07/23 16:20:21;;;;;;;;;;;;;;;;;;4972540;28;20361;-79
2023/07/23 16:23:07;;;;;;;;;;;;;;;;;;4962547;28;19929;-80
2023/07/23 16:25:54;;;;;;;;;;;;;;;;;;4958037;28;19929;-79
2023/07/23 16:28:40;;;;;;;;;;;;;;;;;;4968408;28;19926;-81
2023/07/23 16:31:27;;;;;;;;;;;;;;;;;;4968290;28;19922;-80
2023/07/23 16:34:13;;;;;;;;;;;;;;;;;;4971071;28;19922;-78
2023/07/23 16:37:00;;;;;;;;;;;;;;;;;;4949968;28;19942;-76
2023/07/23 16:39:46;;;;;;;;;;;;;;;;;;4959844;28;19926;-77
2023/07/23 16:42:33;;;;;;;;;;;;;;;;;;4971104;28;19930;-79
2023/07/23 16:45:19;;;;;;;;;;;;;;;;;;4969868;28;19942;-78
2023/07/23 16:48:06;;;;;;;;;;;;;;;;;;4966122;28;20502;-78
2023/07/23 16:50:52;;;;;;;;;;;;;;;;;;4971193;28;19918;-80
2023/07/23 16:53:39;;;;;;;;;;;;;;;;;;4968661;28;19933;-79
2023/07/23 16:56:25;;;;;;;;;;;;;;;;;;4966424;28;19930;-81
2023/07/23 16:59:12;;;;;;;;;;;;;;;;;;4953527;28;20409;-78
2023/07/23 17:02:00;;;;;;;;;;;;;;;;;;4947927;28;24739;-80
2023/07/23 17:04:47;;;;;;;;;;;;;;;;;;4969610;28;19922;-80
2023/07/23 17:07:33;;;;;;;;;;;;;;;;;;4971651;28;19918;-81
2023/07/23 17:10:20;;;;;;;;;;;;;;;;;;4968949;28;20565;-80
2023/07/23 17:13:10;;;;;;;;;;;;;;;;;;4965676;28;19922;-79
2023/07/23 17:15:57;;;;;;;;;;;;;;;;;;4963678;28;19941;-79
2023/07/23 17:18:43;;;;;;;;;;;;;;;;;;4966272;28;19918;-78
2023/07/23 17:21:30;;;;;;;;;;;;;;;;;;4967414;28;19955;-78
2023/07/23 17:24:16;;;;;;;;;;;;;;;;;;4959899;28;19929;-78
2023/07/23 17:27:03;;;;;;;;;;;;;;;;;;4947047;28;19923;-78
2023/07/23 17:29:51;;;;;;;;;;;;;;;;;;4954540;28;19976;-78
2023/07/23 17:32:37;;;;;;;;;;;;;;;;;;4970373;28;19918;-78
2023/07/23 17:35:24;;;;;;;;;;;;;;;;;;4965512;28;19922;-79
2023/07/23 17:38:10;;;;;;;;;;;;;;;;;;4968537;28;19925;-79
2023/07/23 17:40:57;;;;;;;;;;;;;;;;;;4957476;28;19929;-78
2023/07/23 17:43:44;;;;;;;;;;;;;;;;;;4960105;28;19941;-80
2023/07/23 17:46:30;;;;;;;;;;;;;;;;;;4955092;28;19926;-78
2023/07/23 17:49:17;;;;;;;;;;;;;;;;;;4960096;28;20390;-79
2023/07/23 17:52:03;;;;;;;;;;;;;;;;;;4965454;28;20385;-80
2023/07/23 17:54:50;;;;;;;;;;;;;;;;;;4955992;28;19923;-78
2023/07/23 17:57:36;;;;;;;;;;;;;;;;;;4962651;28;20911;-81
2023/07/23 18:00:23;;;;;;;;;;;;;;;;;;4934572;28;19925;-78
2023/07/23 18:03:09;;;;;;;;;;;;;;;;;;4963615;28;19934;-77
2023/07/23 18:05:56;;;;;;;;;;;;;;;;;;4951719;28;19923;-77
2023/07/23 18:08:43;;;;;;;;;;;;;;;;;;4944899;28;19922;-79
2023/07/23 18:11:30;;;;;;;;;;;;;;;;;;4960151;28;19926;-79
2023/07/23 18:14:16;;;;;;;;;;;;;;;;;;4963806;28;19945;-79
2023/07/23 18:17:06;;;;;;;;;;;;;;;;;;4957688;28;20370;-77
2023/07/23 18:19:53;;;;;;;;;;;;;;;;;;4949712;28;20330;-80
2023/07/23 18:22:39;;;;;;;;;;;;;;;;;;4955210;28;19926;-80
2023/07/23 18:25:26;;;;;;;;;;;;;;;;;;4947995;28;19922;-77
2023/07/23 18:28:12;;;;;;;;;;;;;;;;;;4956589;28;20892;-79
2023/07/23 18:30:59;;;;;;;;;;;;;;;;;;4963209;28;19922;-78
2023/07/23 18:33:45;;;;;;;;;;;;;;;;;;4956357;28;19925;-79
2023/07/23 18:36:32;;;;;;;;;;;;;;;;;;4960567;28;19926;-79
2023/07/23 18:39:18;;;;;;;;;;;;;;;;;;4958634;28;20294;-79
2023/07/23 18:42:05;;;;;;;;;;;;;;;;;;4957048;28;20312;-78
2023/07/23 18:44:53;;;;;;;;;;;;;;;;;;4958399;28;19918;-79
2023/07/23 18:47:39;;;;;;;;;;;;;;;;;;4956115;28;20345;-79
2023/07/23 18:50:28;;;;;;;;;;;;;;;;;;4960704;28;19918;-79
2023/07/23 18:53:14;;;;;;;;;;;;;;;;;;4955826;28;19918;-79
2023/07/23 18:56:01;;;;;;;;;;;;;;;;;;4959976;28;19929;-79